sensor_id;sensor_type;location;lat;lon;timestamp;P1;durP1;ratioP1;P2;durP2;ratioP2
13439;SDS011;6792;57.698;11.946;2023-07-30T00:00:07;4.17;;;2.92;;
13439;SDS011;6792;57.698;11.946;2023-07-30T00:02:37;3.10;;;2.60;;
13439;SDS011;6792;57.698;11.946;2023-07-30T00:05:07;5.87;;;3.58;;
13439;SDS011;6792;57.698;11.946;2023-07-30T00:07:36;4.62;;;3.67;;
13439;SDS011;6792;57.698;11.946;2023-07-30T00:10:07;5.85;;;3.25;;
13439;SDS011;6792;57.698;11.946;2023-07-30T00:12:36;4.45;;;2.83;;
13439;SDS011;6792;57.698;11.946;2023-07-30T00:15:07;3.40;;;3.10;;
13439;SDS011;6792;57.698;11.946;2023-07-30T00:17:39;4.03;;;3.37;;
13439;SDS011;6792;57.698;11.946;2023-07-30T00:20:08;5.95;;;2.90;;
13439;SDS011;6792;57.698;11.946;2023-07-30T00:22:38;6.75;;;3.27;;
13439;SDS011;6792;57.698;11.946;2023-07-30T00:25:08;7.55;;;2.77;;
13439;SDS011;6792;57.698;11.946;2023-07-30T00:27:37;6.05;;;2.90;;
13439;SDS011;6792;57.698;11.946;2023-07-30T00:30:08;3.72;;;2.20;;
13439;SDS011;6792;57.698;11.946;2023-07-30T00:32:38;3.37;;;2.30;;
13439;SDS011;6792;57.698;11.946;2023-07-30T00:35:09;3.05;;;2.08;;
13439;SDS011;6792;57.698;11.946;2023-07-30T00:37:38;3.62;;;2.08;;
13439;SDS011;6792;57.698;11.946;2023-07-30T00:40:08;4.37;;;1.95;;
13439;SDS011;6792;57.698;11.946;2023-07-30T00:42:38;4.97;;;2.27;;
13439;SDS011;6792;57.698;11.946;2023-07-30T00:45:09;6.25;;;2.50;;
13439;SDS011;6792;57.698;11.946;2023-07-30T00:47:38;5.90;;;2.08;;
13439;SDS011;6792;57.698;11.946;2023-07-30T00:50:08;5.65;;;1.80;;
13439;SDS011;6792;57.698;11.946;2023-07-30T00:52:39;6.17;;;1.77;;
13439;SDS011;6792;57.698;11.946;2023-07-30T00:55:13;4.45;;;2.12;;
13439;SDS011;6792;57.698;11.946;2023-07-30T00:57:42;5.78;;;2.05;;
13439;SDS011;6792;57.698;11.946;2023-07-30T01:00:13;5.10;;;1.85;;
13439;SDS011;6792;57.698;11.946;2023-07-30T01:02:42;6.95;;;2.47;;
13439;SDS011;6792;57.698;11.946;2023-07-30T01:05:11;4.42;;;2.33;;
13439;SDS011;6792;57.698;11.946;2023-07-30T01:07:40;3.83;;;2.62;;
13439;SDS011;6792;57.698;11.946;2023-07-30T01:10:10;6.20;;;2.22;;
13439;SDS011;6792;57.698;11.946;2023-07-30T01:12:39;7.08;;;2.30;;
13439;SDS011;6792;57.698;11.946;2023-07-30T01:15:10;3.80;;;2.12;;
13439;SDS011;6792;57.698;11.946;2023-07-30T01:17:40;3.85;;;2.05;;
13439;SDS011;6792;57.698;11.946;2023-07-30T01:20:10;9.20;;;2.12;;
13439;SDS011;6792;57.698;11.946;2023-07-30T01:22:39;4.08;;;2.00;;
13439;SDS011;6792;57.698;11.946;2023-07-30T01:25:08;5.95;;;2.10;;
13439;SDS011;6792;57.698;11.946;2023-07-30T01:27:39;6.10;;;2.30;;
13439;SDS011;6792;57.698;11.946;2023-07-30T01:30:13;6.55;;;2.05;;
13439;SDS011;6792;57.698;11.946;2023-07-30T01:32:43;7.10;;;2.22;;
13439;SDS011;6792;57.698;11.946;2023-07-30T01:35:15;9.38;;;2.15;;
13439;SDS011;6792;57.698;11.946;2023-07-30T01:37:45;4.85;;;2.10;;
13439;SDS011;6792;57.698;11.946;2023-07-30T01:40:15;4.60;;;1.70;;
13439;SDS011;6792;57.698;11.946;2023-07-30T01:42:44;6.35;;;1.95;;
13439;SDS011;6792;57.698;11.946;2023-07-30T01:45:13;4.72;;;1.70;;
13439;SDS011;6792;57.698;11.946;2023-07-30T01:47:43;6.60;;;2.35;;
13439;SDS011;6792;57.698;11.946;2023-07-30T01:50:12;5.60;;;2.00;;
13439;SDS011;6792;57.698;11.946;2023-07-30T01:52:41;4.95;;;1.65;;
13439;SDS011;6792;57.698;11.946;2023-07-30T01:55:10;1.40;;;1.30;;
13439;SDS011;6792;57.698;11.946;2023-07-30T01:57:40;3.60;;;1.70;;
13439;SDS011;6792;57.698;11.946;2023-07-30T02:00:12;3.45;;;1.70;;
13439;SDS011;6792;57.698;11.946;2023-07-30T02:02:41;3.50;;;2.22;;
13439;SDS011;6792;57.698;11.946;2023-07-30T02:05:10;5.30;;;2.02;;
13439;SDS011;6792;57.698;11.946;2023-07-30T02:07:39;4.20;;;2.00;;
13439;SDS011;6792;57.698;11.946;2023-07-30T02:10:09;7.25;;;2.27;;
13439;SDS011;6792;57.698;11.946;2023-07-30T02:12:38;2.70;;;2.15;;
13439;SDS011;6792;57.698;11.946;2023-07-30T02:15:08;3.80;;;2.55;;
13439;SDS011;6792;57.698;11.946;2023-07-30T02:17:37;3.10;;;2.67;;
13439;SDS011;6792;57.698;11.946;2023-07-30T02:20:08;2.62;;;2.40;;
13439;SDS011;6792;57.698;11.946;2023-07-30T02:22:37;5.67;;;2.85;;
13439;SDS011;6792;57.698;11.946;2023-07-30T02:25:07;4.03;;;2.30;;
13439;SDS011;6792;57.698;11.946;2023-07-30T02:27:36;5.37;;;3.10;;
13439;SDS011;6792;57.698;11.946;2023-07-30T02:30:06;3.55;;;2.72;;
13439;SDS011;6792;57.698;11.946;2023-07-30T02:32:37;4.67;;;3.22;;
13439;SDS011;6792;57.698;11.946;2023-07-30T02:35:06;3.27;;;2.77;;
13439;SDS011;6792;57.698;11.946;2023-07-30T02:37:36;7.05;;;3.12;;
13439;SDS011;6792;57.698;11.946;2023-07-30T02:40:06;4.22;;;2.77;;
13439;SDS011;6792;57.698;11.946;2023-07-30T02:42:37;7.00;;;2.70;;
13439;SDS011;6792;57.698;11.946;2023-07-30T02:45:07;3.67;;;2.67;;
13439;SDS011;6792;57.698;11.946;2023-07-30T02:47:36;3.05;;;2.37;;
13439;SDS011;6792;57.698;11.946;2023-07-30T02:50:06;3.62;;;2.45;;
13439;SDS011;6792;57.698;11.946;2023-07-30T02:52:36;2.20;;;2.00;;
13439;SDS011;6792;57.698;11.946;2023-07-30T02:55:06;4.12;;;2.05;;
13439;SDS011;6792;57.698;11.946;2023-07-30T02:57:36;2.02;;;1.82;;
13439;SDS011;6792;57.698;11.946;2023-07-30T03:00:07;3.25;;;1.77;;
13439;SDS011;6792;57.698;11.946;2023-07-30T03:02:37;5.78;;;2.10;;
13439;SDS011;6792;57.698;11.946;2023-07-30T03:05:07;3.83;;;1.92;;
13439;SDS011;6792;57.698;11.946;2023-07-30T03:07:37;3.62;;;1.87;;
13439;SDS011;6792;57.698;11.946;2023-07-30T03:10:07;4.30;;;1.50;;
13439;SDS011;6792;57.698;11.946;2023-07-30T03:12:37;1.60;;;1.50;;
13439;SDS011;6792;57.698;11.946;2023-07-30T03:15:07;5.55;;;1.70;;
13439;SDS011;6792;57.698;11.946;2023-07-30T03:17:37;2.67;;;1.50;;
13439;SDS011;6792;57.698;11.946;2023-07-30T03:20:08;5.65;;;1.90;;
13439;SDS011;6792;57.698;11.946;2023-07-30T03:22:38;2.20;;;1.25;;
13439;SDS011;6792;57.698;11.946;2023-07-30T03:25:08;4.40;;;1.72;;
13439;SDS011;6792;57.698;11.946;2023-07-30T03:27:37;4.42;;;1.50;;
13439;SDS011;6792;57.698;11.946;2023-07-30T03:30:07;3.00;;;1.60;;
13439;SDS011;6792;57.698;11.946;2023-07-30T03:32:37;3.90;;;1.77;;
13439;SDS011;6792;57.698;11.946;2023-07-30T03:35:07;5.15;;;1.60;;
13439;SDS011;6792;57.698;11.946;2023-07-30T03:37:37;3.20;;;1.55;;
13439;SDS011;6792;57.698;11.946;2023-07-30T03:40:08;4.25;;;1.60;;
13439;SDS011;6792;57.698;11.946;2023-07-30T03:42:37;4.97;;;1.40;;
13439;SDS011;6792;57.698;11.946;2023-07-30T03:45:07;2.20;;;1.20;;
13439;SDS011;6792;57.698;11.946;2023-07-30T03:47:37;6.45;;;1.60;;
13439;SDS011;6792;57.698;11.946;2023-07-30T03:50:07;5.00;;;2.20;;
13439;SDS011;6792;57.698;11.946;2023-07-30T03:52:37;6.72;;;1.60;;
13439;SDS011;6792;57.698;11.946;2023-07-30T03:55:06;2.92;;;1.37;;
13439;SDS011;6792;57.698;11.946;2023-07-30T03:57:36;5.22;;;2.17;;
13439;SDS011;6792;57.698;11.946;2023-07-30T04:00:06;2.22;;;1.20;;
13439;SDS011;6792;57.698;11.946;2023-07-30T04:02:36;4.78;;;1.75;;
13439;SDS011;6792;57.698;11.946;2023-07-30T04:05:06;8.08;;;2.20;;
13439;SDS011;6792;57.698;11.946;2023-07-30T04:07:35;5.87;;;2.15;;
13439;SDS011;6792;57.698;11.946;2023-07-30T04:10:05;7.47;;;2.30;;
13439;SDS011;6792;57.698;11.946;2023-07-30T04:12:35;4.95;;;1.87;;
13439;SDS011;6792;57.698;11.946;2023-07-30T04:15:06;5.33;;;2.05;;
13439;SDS011;6792;57.698;11.946;2023-07-30T04:17:36;4.33;;;1.90;;
13439;SDS011;6792;57.698;11.946;2023-07-30T04:20:07;5.95;;;1.80;;
13439;SDS011;6792;57.698;11.946;2023-07-30T04:22:37;7.28;;;2.33;;
13439;SDS011;6792;57.698;11.946;2023-07-30T04:25:08;4.20;;;1.80;;
13439;SDS011;6792;57.698;11.946;2023-07-30T04:27:37;5.35;;;1.87;;
13439;SDS011;6792;57.698;11.946;2023-07-30T04:30:07;3.40;;;2.22;;
13439;SDS011;6792;57.698;11.946;2023-07-30T04:32:37;5.97;;;2.55;;
13439;SDS011;6792;57.698;11.946;2023-07-30T04:35:07;3.70;;;2.00;;
13439;SDS011;6792;57.698;11.946;2023-07-30T04:37:36;7.70;;;2.50;;
13439;SDS011;6792;57.698;11.946;2023-07-30T04:40:07;2.05;;;1.85;;
13439;SDS011;6792;57.698;11.946;2023-07-30T04:42:38;2.35;;;1.60;;
13439;SDS011;6792;57.698;11.946;2023-07-30T04:45:09;2.37;;;1.90;;
13439;SDS011;6792;57.698;11.946;2023-07-30T04:47:38;3.08;;;2.45;;
13439;SDS011;6792;57.698;11.946;2023-07-30T04:50:08;3.67;;;2.00;;
13439;SDS011;6792;57.698;11.946;2023-07-30T04:52:37;6.03;;;2.02;;
13439;SDS011;6792;57.698;11.946;2023-07-30T04:55:07;8.30;;;2.25;;
13439;SDS011;6792;57.698;11.946;2023-07-30T04:57:37;6.25;;;1.98;;
13439;SDS011;6792;57.698;11.946;2023-07-30T05:00:07;10.05;;;2.25;;
13439;SDS011;6792;57.698;11.946;2023-07-30T05:02:38;4.58;;;2.15;;
13439;SDS011;6792;57.698;11.946;2023-07-30T05:05:07;3.65;;;1.92;;
13439;SDS011;6792;57.698;11.946;2023-07-30T05:07:37;8.63;;;2.65;;
13439;SDS011;6792;57.698;11.946;2023-07-30T05:10:07;4.05;;;1.95;;
13439;SDS011;6792;57.698;11.946;2023-07-30T05:12:37;4.62;;;2.02;;
13439;SDS011;6792;57.698;11.946;2023-07-30T05:15:07;3.58;;;2.45;;
13439;SDS011;6792;57.698;11.946;2023-07-30T05:17:36;3.27;;;2.15;;
13439;SDS011;6792;57.698;11.946;2023-07-30T05:20:07;4.53;;;2.50;;
13439;SDS011;6792;57.698;11.946;2023-07-30T05:22:38;4.28;;;2.47;;
13439;SDS011;6792;57.698;11.946;2023-07-30T05:25:08;4.83;;;2.40;;
13439;SDS011;6792;57.698;11.946;2023-07-30T05:27:37;3.90;;;2.20;;
13439;SDS011;6792;57.698;11.946;2023-07-30T05:30:07;4.65;;;2.30;;
13439;SDS011;6792;57.698;11.946;2023-07-30T05:32:37;3.37;;;1.98;;
13439;SDS011;6792;57.698;11.946;2023-07-30T05:35:07;3.92;;;2.17;;
13439;SDS011;6792;57.698;11.946;2023-07-30T05:37:37;4.03;;;2.02;;
13439;SDS011;6792;57.698;11.946;2023-07-30T05:40:07;5.03;;;2.20;;
13439;SDS011;6792;57.698;11.946;2023-07-30T05:42:37;4.65;;;2.40;;
13439;SDS011;6792;57.698;11.946;2023-07-30T05:45:08;4.55;;;2.12;;
13439;SDS011;6792;57.698;11.946;2023-07-30T05:47:38;2.85;;;2.25;;
13439;SDS011;6792;57.698;11.946;2023-07-30T05:50:08;5.22;;;2.15;;
13439;SDS011;6792;57.698;11.946;2023-07-30T05:52:38;4.03;;;2.08;;
13439;SDS011;6792;57.698;11.946;2023-07-30T05:55:08;5.42;;;2.20;;
13439;SDS011;6792;57.698;11.946;2023-07-30T05:57:37;8.83;;;2.40;;
13439;SDS011;6792;57.698;11.946;2023-07-30T06:00:08;4.33;;;2.12;;
13439;SDS011;6792;57.698;11.946;2023-07-30T06:02:38;5.95;;;2.30;;
13439;SDS011;6792;57.698;11.946;2023-07-30T06:05:08;6.22;;;2.60;;
13439;SDS011;6792;57.698;11.946;2023-07-30T06:07:37;5.35;;;2.20;;
13439;SDS011;6792;57.698;11.946;2023-07-30T06:10:07;5.17;;;2.55;;
13439;SDS011;6792;57.698;11.946;2023-07-30T06:12:36;5.90;;;1.95;;
13439;SDS011;6792;57.698;11.946;2023-07-30T06:15:08;6.03;;;2.20;;
13439;SDS011;6792;57.698;11.946;2023-07-30T06:17:37;4.70;;;1.87;;
13439;SDS011;6792;57.698;11.946;2023-07-30T06:20:08;10.30;;;2.33;;
13439;SDS011;6792;57.698;11.946;2023-07-30T06:22:39;6.83;;;3.08;;
13439;SDS011;6792;57.698;11.946;2023-07-30T06:25:08;5.60;;;2.25;;
13439;SDS011;6792;57.698;11.946;2023-07-30T06:27:37;3.42;;;2.00;;
13439;SDS011;6792;57.698;11.946;2023-07-30T06:30:07;3.72;;;2.30;;
13439;SDS011;6792;57.698;11.946;2023-07-30T06:32:37;4.85;;;2.50;;
13439;SDS011;6792;57.698;11.946;2023-07-30T06:35:07;6.03;;;1.92;;
13439;SDS011;6792;57.698;11.946;2023-07-30T06:37:36;4.03;;;2.08;;
13439;SDS011;6792;57.698;11.946;2023-07-30T06:40:10;3.95;;;2.02;;
13439;SDS011;6792;57.698;11.946;2023-07-30T06:42:39;6.22;;;1.82;;
13439;SDS011;6792;57.698;11.946;2023-07-30T06:45:12;4.62;;;1.80;;
13439;SDS011;6792;57.698;11.946;2023-07-30T06:47:41;2.83;;;2.10;;
13439;SDS011;6792;57.698;11.946;2023-07-30T06:50:10;4.78;;;2.15;;
13439;SDS011;6792;57.698;11.946;2023-07-30T06:52:39;4.83;;;2.05;;
13439;SDS011;6792;57.698;11.946;2023-07-30T06:55:09;9.53;;;2.22;;
13439;SDS011;6792;57.698;11.946;2023-07-30T06:57:38;9.80;;;2.33;;
13439;SDS011;6792;57.698;11.946;2023-07-30T07:00:08;5.28;;;2.17;;
13439;SDS011;6792;57.698;11.946;2023-07-30T07:02:38;4.85;;;1.85;;
13439;SDS011;6792;57.698;11.946;2023-07-30T07:05:08;3.90;;;2.12;;
13439;SDS011;6792;57.698;11.946;2023-07-30T07:07:37;5.80;;;2.62;;
13439;SDS011;6792;57.698;11.946;2023-07-30T07:10:07;3.65;;;2.10;;
13439;SDS011;6792;57.698;11.946;2023-07-30T07:12:38;4.03;;;2.35;;
13439;SDS011;6792;57.698;11.946;2023-07-30T07:15:09;3.52;;;1.77;;
13439;SDS011;6792;57.698;11.946;2023-07-30T07:17:38;4.75;;;2.42;;
13439;SDS011;6792;57.698;11.946;2023-07-30T07:20:08;6.75;;;2.00;;
13439;SDS011;6792;57.698;11.946;2023-07-30T07:22:37;3.62;;;2.12;;
13439;SDS011;6792;57.698;11.946;2023-07-30T07:25:08;3.22;;;2.10;;
13439;SDS011;6792;57.698;11.946;2023-07-30T07:27:37;4.60;;;2.30;;
13439;SDS011;6792;57.698;11.946;2023-07-30T07:30:08;6.90;;;2.17;;
13439;SDS011;6792;57.698;11.946;2023-07-30T07:32:38;5.17;;;2.20;;
13439;SDS011;6792;57.698;11.946;2023-07-30T07:35:08;2.70;;;2.37;;
13439;SDS011;6792;57.698;11.946;2023-07-30T07:37:37;3.92;;;1.77;;
13439;SDS011;6792;57.698;11.946;2023-07-30T07:40:08;3.83;;;2.25;;
13439;SDS011;6792;57.698;11.946;2023-07-30T07:42:38;7.53;;;2.58;;
13439;SDS011;6792;57.698;11.946;2023-07-30T07:45:08;2.90;;;1.80;;
13439;SDS011;6792;57.698;11.946;2023-07-30T07:47:37;3.65;;;2.15;;
13439;SDS011;6792;57.698;11.946;2023-07-30T07:50:07;4.37;;;2.08;;
13439;SDS011;6792;57.698;11.946;2023-07-30T07:52:37;3.35;;;1.82;;
13439;SDS011;6792;57.698;11.946;2023-07-30T07:55:07;6.65;;;2.25;;
13439;SDS011;6792;57.698;11.946;2023-07-30T07:57:37;4.97;;;2.00;;
13439;SDS011;6792;57.698;11.946;2023-07-30T08:00:07;5.60;;;2.52;;
13439;SDS011;6792;57.698;11.946;2023-07-30T08:02:37;4.45;;;1.80;;
13439;SDS011;6792;57.698;11.946;2023-07-30T08:05:07;8.05;;;1.82;;
13439;SDS011;6792;57.698;11.946;2023-07-30T08:07:36;2.65;;;1.72;;
13439;SDS011;6792;57.698;11.946;2023-07-30T08:10:06;4.47;;;2.08;;
13439;SDS011;6792;57.698;11.946;2023-07-30T08:12:37;6.40;;;1.95;;
13439;SDS011;6792;57.698;11.946;2023-07-30T08:15:07;7.42;;;2.27;;
13439;SDS011;6792;57.698;11.946;2023-07-30T08:17:37;7.05;;;2.12;;
13439;SDS011;6792;57.698;11.946;2023-07-30T08:20:07;4.00;;;2.10;;
13439;SDS011;6792;57.698;11.946;2023-07-30T08:22:36;4.08;;;2.05;;
13439;SDS011;6792;57.698;11.946;2023-07-30T08:25:07;3.10;;;1.90;;
13439;SDS011;6792;57.698;11.946;2023-07-30T08:27:39;2.98;;;1.77;;
13439;SDS011;6792;57.698;11.946;2023-07-30T08:30:09;4.67;;;2.10;;
13439;SDS011;6792;57.698;11.946;2023-07-30T08:32:40;2.83;;;2.05;;
13439;SDS011;6792;57.698;11.946;2023-07-30T08:35:10;4.30;;;1.95;;
13439;SDS011;6792;57.698;11.946;2023-07-30T08:37:39;4.72;;;2.05;;
13439;SDS011;6792;57.698;11.946;2023-07-30T08:40:10;5.03;;;2.00;;
13439;SDS011;6792;57.698;11.946;2023-07-30T08:42:40;7.67;;;2.17;;
13439;SDS011;6792;57.698;11.946;2023-07-30T08:45:13;4.05;;;2.00;;
13439;SDS011;6792;57.698;11.946;2023-07-30T08:47:43;6.12;;;2.65;;
13439;SDS011;6792;57.698;11.946;2023-07-30T08:50:13;4.75;;;2.10;;
13439;SDS011;6792;57.698;11.946;2023-07-30T08:52:43;5.00;;;2.30;;
13439;SDS011;6792;57.698;11.946;2023-07-30T08:55:14;5.50;;;2.30;;
13439;SDS011;6792;57.698;11.946;2023-07-30T08:57:53;6.42;;;2.58;;
13439;SDS011;6792;57.698;11.946;2023-07-30T09:00:25;7.80;;;2.58;;
13439;SDS011;6792;57.698;11.946;2023-07-30T09:03:04;6.40;;;2.22;;
13439;SDS011;6792;57.698;11.946;2023-07-30T09:05:37;6.80;;;2.37;;
13439;SDS011;6792;57.698;11.946;2023-07-30T09:08:08;5.10;;;2.20;;
13439;SDS011;6792;57.698;11.946;2023-07-30T09:10:42;4.12;;;2.27;;
13439;SDS011;6792;57.698;11.946;2023-07-30T09:13:21;5.05;;;2.15;;
13439;SDS011;6792;57.698;11.946;2023-07-30T09:15:51;7.15;;;2.55;;
13439;SDS011;6792;57.698;11.946;2023-07-30T09:18:25;4.75;;;2.37;;
13439;SDS011;6792;57.698;11.946;2023-07-30T09:21:00;6.72;;;2.20;;
13439;SDS011;6792;57.698;11.946;2023-07-30T09:23:31;7.70;;;2.45;;
13439;SDS011;6792;57.698;11.946;2023-07-30T09:26:02;3.70;;;2.27;;
13439;SDS011;6792;57.698;11.946;2023-07-30T09:28:32;8.08;;;2.12;;
13439;SDS011;6792;57.698;11.946;2023-07-30T09:31:02;6.20;;;2.35;;
13439;SDS011;6792;57.698;11.946;2023-07-30T09:33:32;4.55;;;2.05;;
13439;SDS011;6792;57.698;11.946;2023-07-30T09:36:02;5.95;;;2.45;;
13439;SDS011;6792;57.698;11.946;2023-07-30T09:38:32;5.50;;;1.95;;
13439;SDS011;6792;57.698;11.946;2023-07-30T09:41:03;10.05;;;2.30;;
13439;SDS011;6792;57.698;11.946;2023-07-30T09:43:32;6.12;;;2.08;;
13439;SDS011;6792;57.698;11.946;2023-07-30T09:46:02;5.53;;;1.62;;
13439;SDS011;6792;57.698;11.946;2023-07-30T09:48:32;3.87;;;1.70;;
13439;SDS011;6792;57.698;11.946;2023-07-30T09:51:03;4.53;;;1.70;;
13439;SDS011;6792;57.698;11.946;2023-07-30T09:53:33;5.25;;;1.90;;
13439;SDS011;6792;57.698;11.946;2023-07-30T09:56:02;4.20;;;1.85;;
13439;SDS011;6792;57.698;11.946;2023-07-30T09:58:36;8.75;;;2.10;;
13439;SDS011;6792;57.698;11.946;2023-07-30T10:01:05;4.17;;;1.60;;
13439;SDS011;6792;57.698;11.946;2023-07-30T10:03:35;5.17;;;1.90;;
13439;SDS011;6792;57.698;11.946;2023-07-30T10:06:04;6.58;;;1.90;;
13439;SDS011;6792;57.698;11.946;2023-07-30T10:08:35;3.75;;;1.55;;
13439;SDS011;6792;57.698;11.946;2023-07-30T10:11:07;5.30;;;1.52;;
13439;SDS011;6792;57.698;11.946;2023-07-30T10:13:37;2.52;;;1.50;;
13439;SDS011;6792;57.698;11.946;2023-07-30T10:16:10;4.40;;;1.85;;
13439;SDS011;6792;57.698;11.946;2023-07-30T10:18:40;5.22;;;1.40;;
13439;SDS011;6792;57.698;11.946;2023-07-30T10:21:10;4.97;;;1.65;;
13439;SDS011;6792;57.698;11.946;2023-07-30T10:23:46;5.72;;;1.52;;
13439;SDS011;6792;57.698;11.946;2023-07-30T10:26:17;2.95;;;1.50;;
13439;SDS011;6792;57.698;11.946;2023-07-30T10:28:53;7.30;;;1.95;;
13439;SDS011;6792;57.698;11.946;2023-07-30T10:31:39;3.05;;;1.35;;
13439;SDS011;6792;57.698;11.946;2023-07-30T10:34:09;3.87;;;1.60;;
13439;SDS011;6792;57.698;11.946;2023-07-30T10:36:44;3.17;;;1.40;;
13439;SDS011;6792;57.698;11.946;2023-07-30T10:39:14;5.03;;;1.30;;
13439;SDS011;6792;57.698;11.946;2023-07-30T10:41:44;3.25;;;1.35;;
13439;SDS011;6792;57.698;11.946;2023-07-30T10:44:24;4.72;;;1.42;;
13439;SDS011;6792;57.698;11.946;2023-07-30T10:46:54;3.45;;;1.22;;
13439;SDS011;6792;57.698;11.946;2023-07-30T10:49:24;2.95;;;1.35;;
13439;SDS011;6792;57.698;11.946;2023-07-30T10:51:54;2.77;;;1.47;;
13439;SDS011;6792;57.698;11.946;2023-07-30T10:54:24;3.05;;;1.27;;
13439;SDS011;6792;57.698;11.946;2023-07-30T10:56:53;4.05;;;1.20;;
13439;SDS011;6792;57.698;11.946;2023-07-30T10:59:23;4.03;;;1.50;;
13439;SDS011;6792;57.698;11.946;2023-07-30T11:01:52;2.58;;;1.30;;
13439;SDS011;6792;57.698;11.946;2023-07-30T11:04:21;2.80;;;1.40;;
13439;SDS011;6792;57.698;11.946;2023-07-30T11:06:51;5.75;;;1.47;;
13439;SDS011;6792;57.698;11.946;2023-07-30T11:09:20;3.20;;;1.27;;
13439;SDS011;6792;57.698;11.946;2023-07-30T11:11:51;3.10;;;1.30;;
13439;SDS011;6792;57.698;11.946;2023-07-30T11:14:22;2.87;;;1.32;;
13439;SDS011;6792;57.698;11.946;2023-07-30T11:16:54;5.20;;;1.52;;
13439;SDS011;6792;57.698;11.946;2023-07-30T11:19:25;3.22;;;1.20;;
13439;SDS011;6792;57.698;11.946;2023-07-30T11:21:56;6.15;;;1.90;;
13439;SDS011;6792;57.698;11.946;2023-07-30T11:24:33;3.37;;;1.42;;
13439;SDS011;6792;57.698;11.946;2023-07-30T11:27:03;6.53;;;1.67;;
13439;SDS011;6792;57.698;11.946;2023-07-30T11:29:33;5.12;;;1.40;;
13439;SDS011;6792;57.698;11.946;2023-07-30T11:32:03;6.70;;;1.70;;
13439;SDS011;6792;57.698;11.946;2023-07-30T11:34:33;5.65;;;1.57;;
13439;SDS011;6792;57.698;11.946;2023-07-30T11:37:04;3.87;;;1.87;;
13439;SDS011;6792;57.698;11.946;2023-07-30T11:39:34;6.10;;;1.70;;
13439;SDS011;6792;57.698;11.946;2023-07-30T11:42:04;6.95;;;2.10;;
13439;SDS011;6792;57.698;11.946;2023-07-30T11:44:34;6.37;;;1.95;;
13439;SDS011;6792;57.698;11.946;2023-07-30T11:47:05;4.35;;;1.95;;
13439;SDS011;6792;57.698;11.946;2023-07-30T11:49:35;7.42;;;1.90;;
13439;SDS011;6792;57.698;11.946;2023-07-30T11:52:05;3.05;;;1.40;;
13439;SDS011;6792;57.698;11.946;2023-07-30T11:54:35;8.73;;;1.75;;
13439;SDS011;6792;57.698;11.946;2023-07-30T11:57:05;2.50;;;1.35;;
13439;SDS011;6792;57.698;11.946;2023-07-30T11:59:35;5.80;;;1.65;;
13439;SDS011;6792;57.698;11.946;2023-07-30T12:02:07;3.72;;;1.40;;
13439;SDS011;6792;57.698;11.946;2023-07-30T12:04:43;7.83;;;1.80;;
13439;SDS011;6792;57.698;11.946;2023-07-30T12:07:13;7.40;;;1.95;;
13439;SDS011;6792;57.698;11.946;2023-07-30T12:09:50;5.45;;;1.60;;
13439;SDS011;6792;57.698;11.946;2023-07-30T12:12:20;3.72;;;1.10;;
13439;SDS011;6792;57.698;11.946;2023-07-30T12:14:54;3.00;;;1.77;;
13439;SDS011;6792;57.698;11.946;2023-07-30T12:17:23;5.90;;;1.90;;
13439;SDS011;6792;57.698;11.946;2023-07-30T12:19:52;7.00;;;1.62;;
13439;SDS011;6792;57.698;11.946;2023-07-30T12:22:22;7.45;;;1.82;;
13439;SDS011;6792;57.698;11.946;2023-07-30T12:24:51;3.98;;;1.70;;
13439;SDS011;6792;57.698;11.946;2023-07-30T12:27:22;4.50;;;1.70;;
13439;SDS011;6792;57.698;11.946;2023-07-30T12:29:51;4.87;;;1.70;;
13439;SDS011;6792;57.698;11.946;2023-07-30T12:32:20;6.72;;;1.70;;
13439;SDS011;6792;57.698;11.946;2023-07-30T12:34:49;4.87;;;1.87;;
13439;SDS011;6792;57.698;11.946;2023-07-30T12:37:18;6.97;;;1.75;;
13439;SDS011;6792;57.698;11.946;2023-07-30T12:39:48;6.92;;;1.80;;
13439;SDS011;6792;57.698;11.946;2023-07-30T12:42:17;4.28;;;1.35;;
13439;SDS011;6792;57.698;11.946;2023-07-30T12:44:46;3.70;;;2.08;;
13439;SDS011;6792;57.698;11.946;2023-07-30T12:47:17;2.83;;;1.50;;
13439;SDS011;6792;57.698;11.946;2023-07-30T12:49:46;3.92;;;1.65;;
13439;SDS011;6792;57.698;11.946;2023-07-30T12:52:15;4.75;;;1.52;;
13439;SDS011;6792;57.698;11.946;2023-07-30T12:54:44;3.55;;;1.40;;
13439;SDS011;6792;57.698;11.946;2023-07-30T12:57:14;2.17;;;1.50;;
13439;SDS011;6792;57.698;11.946;2023-07-30T12:59:43;7.22;;;1.50;;
13439;SDS011;6792;57.698;11.946;2023-07-30T13:02:15;3.92;;;1.32;;
13439;SDS011;6792;57.698;11.946;2023-07-30T13:04:44;2.55;;;1.30;;
13439;SDS011;6792;57.698;11.946;2023-07-30T13:07:13;3.30;;;1.17;;
13439;SDS011;6792;57.698;11.946;2023-07-30T13:09:42;3.72;;;1.67;;
13439;SDS011;6792;57.698;11.946;2023-07-30T13:12:13;4.10;;;1.42;;
13439;SDS011;6792;57.698;11.946;2023-07-30T13:14:43;4.22;;;1.47;;
13439;SDS011;6792;57.698;11.946;2023-07-30T13:17:12;3.95;;;1.25;;
13439;SDS011;6792;57.698;11.946;2023-07-30T13:19:41;3.15;;;1.12;;
13439;SDS011;6792;57.698;11.946;2023-07-30T13:22:10;4.00;;;1.00;;
13439;SDS011;6792;57.698;11.946;2023-07-30T13:24:39;2.77;;;1.10;;
13439;SDS011;6792;57.698;11.946;2023-07-30T13:27:08;4.50;;;1.10;;
13439;SDS011;6792;57.698;11.946;2023-07-30T13:29:38;3.77;;;1.10;;
13439;SDS011;6792;57.698;11.946;2023-07-30T13:32:10;4.00;;;1.00;;
13439;SDS011;6792;57.698;11.946;2023-07-30T13:34:39;3.37;;;1.22;;
13439;SDS011;6792;57.698;11.946;2023-07-30T13:37:08;1.75;;;0.90;;
13439;SDS011;6792;57.698;11.946;2023-07-30T13:39:37;3.47;;;1.00;;
13439;SDS011;6792;57.698;11.946;2023-07-30T13:42:07;2.42;;;1.00;;
13439;SDS011;6792;57.698;11.946;2023-07-30T13:44:36;3.27;;;1.20;;
13439;SDS011;6792;57.698;11.946;2023-07-30T13:47:06;2.90;;;1.07;;
13439;SDS011;6792;57.698;11.946;2023-07-30T13:49:35;3.40;;;1.20;;
13439;SDS011;6792;57.698;11.946;2023-07-30T13:52:05;4.15;;;1.07;;
13439;SDS011;6792;57.698;11.946;2023-07-30T13:54:34;2.95;;;1.07;;
13439;SDS011;6792;57.698;11.946;2023-07-30T13:57:04;2.22;;;0.80;;
13439;SDS011;6792;57.698;11.946;2023-07-30T13:59:34;4.65;;;1.15;;
13439;SDS011;6792;57.698;11.946;2023-07-30T14:02:04;3.17;;;0.90;;
13439;SDS011;6792;57.698;11.946;2023-07-30T14:04:33;4.00;;;0.90;;
13439;SDS011;6792;57.698;11.946;2023-07-30T14:07:03;2.50;;;1.32;;
13439;SDS011;6792;57.698;11.946;2023-07-30T14:09:33;1.62;;;0.93;;
13439;SDS011;6792;57.698;11.946;2023-07-30T14:12:03;4.95;;;1.15;;
13439;SDS011;6792;57.698;11.946;2023-07-30T14:14:33;2.47;;;0.93;;
13439;SDS011;6792;57.698;11.946;2023-07-30T14:17:03;1.82;;;0.90;;
13439;SDS011;6792;57.698;11.946;2023-07-30T14:19:33;3.70;;;0.78;;
13439;SDS011;6792;57.698;11.946;2023-07-30T14:22:02;1.57;;;0.90;;
13439;SDS011;6792;57.698;11.946;2023-07-30T14:24:33;3.25;;;1.32;;
13439;SDS011;6792;57.698;11.946;2023-07-30T14:27:04;5.37;;;1.00;;
13439;SDS011;6792;57.698;11.946;2023-07-30T14:29:35;3.98;;;1.30;;
13439;SDS011;6792;57.698;11.946;2023-07-30T14:32:05;4.92;;;1.25;;
13439;SDS011;6792;57.698;11.946;2023-07-30T14:34:35;3.77;;;1.10;;
13439;SDS011;6792;57.698;11.946;2023-07-30T14:37:05;3.22;;;1.12;;
13439;SDS011;6792;57.698;11.946;2023-07-30T14:39:34;3.40;;;1.15;;
13439;SDS011;6792;57.698;11.946;2023-07-30T14:42:04;2.37;;;1.15;;
13439;SDS011;6792;57.698;11.946;2023-07-30T14:44:33;3.72;;;1.37;;
13439;SDS011;6792;57.698;11.946;2023-07-30T14:47:02;2.75;;;1.30;;
13439;SDS011;6792;57.698;11.946;2023-07-30T14:49:33;4.45;;;1.40;;
13439;SDS011;6792;57.698;11.946;2023-07-30T14:52:04;3.35;;;1.30;;
13439;SDS011;6792;57.698;11.946;2023-07-30T14:54:34;3.55;;;1.32;;
13439;SDS011;6792;57.698;11.946;2023-07-30T14:57:03;4.67;;;1.30;;
13439;SDS011;6792;57.698;11.946;2023-07-30T14:59:33;4.47;;;1.20;;
13439;SDS011;6792;57.698;11.946;2023-07-30T15:02:02;4.22;;;1.27;;
13439;SDS011;6792;57.698;11.946;2023-07-30T15:04:33;3.37;;;1.40;;